Dom Joao — CSZA2 — position and weather

sailwx.info

Track history (hours):
 
Tides and Currents Weather Stations Pressure Air Temp Water Temp Dewpoint Dewpoint Depression Visibility Wind Speed Wind Dir Waves Ship Positions

Dom Joao

Last reported at 2018-Apr-15 14:52 UTC. Time now 2018-Apr-19 15:34 UTC.
Position N 38°42' W 009°11'.

Length 14 m.

Type: Passenger vessel. MMSI: 263673906.

Date/timePositionNaut miles runAvg speedWind from/ knotsBaromVisibWave heightAir tempDewpointWater temp
2018-Apr-15 14:52N 38°42' W 009°11'1 1.7
2018-Apr-15 14:30N 38°42' W 009°10'2 4.0
2018-Apr-15 13:59N 38°41' W 009°12'0 0.7
2018-Apr-15 13:29N 38°42' W 009°13'2 1.2
2018-Apr-15 11:59N 38°42' W 009°11'1 1.7
2018-Apr-15 11:29N 38°42' W 009°12'1 1.4
2018-Apr-15 11:00N 38°42' W 009°11'2 4.0
2018-Apr-15 10:27N 38°42' W 009°08'4 9.1
2018-Apr-15 09:59N 38°41' W 009°13'4 8.6
2018-Apr-15 09:28N 38°41' W 009°19'4 8.5
2018-Apr-15 09:00N 38°42' W 009°24'1 1.4
2018-Apr-15 08:23N 38°42' W 009°25'1 1.4
2018-Apr-15 08:00N 38°42' W 009°24'4 8.5
2018-Apr-15 07:30N 38°41' W 009°19'510.4
2018-Apr-15 06:59N 38°42' W 009°12'  
2018-Apr-11 16:22N 38°42' W 009°11'1 1.6
2018-Apr-11 16:00N 38°41' W 009°12'1 0.2
2018-Apr-11 10:41N 38°42' W 009°11'1 7.3
2018-Apr-11 10:29N 38°41' W 009°12'0 0.1
2018-Apr-11 09:58N 38°41' W 009°12'2 0.1
2018-Apr-10 12:52N 38°42' W 009°11'0 0.0
2018-Apr-10 12:19N 38°42' W 009°11'0 0.0
2018-Apr-10 11:09N 38°42' W 009°11'2 7.3
2018-Apr-10 10:54N 38°41' W 009°13'1 2.0
2018-Apr-10 10:23N 38°42' W 009°14'1 1.4
2018-Apr-10 10:00N 38°41' W 009°14'  
Track history (hours):
 
Tides and Currents Weather Stations Pressure Air Temp Water Temp Dewpoint Dewpoint Depression Visibility Wind Speed Wind Dir Waves Ship Positions

Dom Joao

Last reported at 2018-Apr-15 14:52 UTC. Time now 2018-Apr-19 15:34 UTC.
Position N 38°42' W 009°11'.

Length 14 m.

Type: Passenger vessel. MMSI: 263673906.

Date/timePositionNaut miles runAvg speedWind from/ knotsBaromVisibWave heightAir tempDewpointWater temp
2018-Apr-15 14:52N 38°42' W 009°11'1 1.7
2018-Apr-15 14:30N 38°42' W 009°10'2 4.0
2018-Apr-15 13:59N 38°41' W 009°12'0 0.7
2018-Apr-15 13:29N 38°42' W 009°13'2 1.2
2018-Apr-15 11:59N 38°42' W 009°11'1 1.7
2018-Apr-15 11:29N 38°42' W 009°12'1 1.4
2018-Apr-15 11:00N 38°42' W 009°11'2 4.0
2018-Apr-15 10:27N 38°42' W 009°08'4 9.1
2018-Apr-15 09:59N 38°41' W 009°13'4 8.6
2018-Apr-15 09:28N 38°41' W 009°19'4 8.5
2018-Apr-15 09:00N 38°42' W 009°24'1 1.4
2018-Apr-15 08:23N 38°42' W 009°25'1 1.4
2018-Apr-15 08:00N 38°42' W 009°24'4 8.5
2018-Apr-15 07:30N 38°41' W 009°19'510.4
2018-Apr-15 06:59N 38°42' W 009°12'  
2018-Apr-11 16:22N 38°42' W 009°11'1 1.6
2018-Apr-11 16:00N 38°41' W 009°12'1 0.2
2018-Apr-11 10:41N 38°42' W 009°11'1 7.3
2018-Apr-11 10:29N 38°41' W 009°12'0 0.1
2018-Apr-11 09:58N 38°41' W 009°12'2 0.1
2018-Apr-10 12:52N 38°42' W 009°11'0 0.0
2018-Apr-10 12:19N 38°42' W 009°11'0 0.0
2018-Apr-10 11:09N 38°42' W 009°11'2 7.3
2018-Apr-10 10:54N 38°41' W 009°13'1 2.0
2018-Apr-10 10:23N 38°42' W 009°14'1 1.4
2018-Apr-10 10:00N 38°41' W 009°14'  

Dump ship's entire track history